createdAt,value
2022-08-26T00:02:00.438Z,19.10
2022-08-26T00:04:31.694Z,19.00
2022-08-26T00:06:59.937Z,18.90
2022-08-26T00:09:28.563Z,18.90
2022-08-26T00:11:56.935Z,18.90
2022-08-26T00:14:30.782Z,18.80
2022-08-26T00:16:59.301Z,18.80
2022-08-26T00:19:29.262Z,18.80
2022-08-26T00:21:57.295Z,18.80
2022-08-26T00:24:25.585Z,18.70
2022-08-26T00:26:53.866Z,18.80
2022-08-26T00:29:22.391Z,18.80
2022-08-26T00:31:51.148Z,18.80
2022-08-26T00:34:19.707Z,18.90
2022-08-26T00:36:52.012Z,18.90
2022-08-26T00:39:21.058Z,18.90
2022-08-26T00:41:49.096Z,18.80
2022-08-26T00:44:17.468Z,18.80
2022-08-26T00:46:50.151Z,18.80
2022-08-26T00:49:23.198Z,18.70
2022-08-26T00:51:55.792Z,18.70
2022-08-26T00:54:27.925Z,18.70
2022-08-26T00:57:00.357Z,18.70
2022-08-26T00:59:32.923Z,18.60
2022-08-26T01:02:03.033Z,18.50
2022-08-26T01:04:32.586Z,18.40
2022-08-26T01:07:02.626Z,18.30
2022-08-26T01:09:31.422Z,18.30
2022-08-26T01:12:02.832Z,18.30
2022-08-26T01:14:34.901Z,18.30
2022-08-26T01:17:07.368Z,18.20
2022-08-26T01:19:43.505Z,18.20
2022-08-26T01:22:18.307Z,18.30
2022-08-26T01:24:49.240Z,18.30
2022-08-26T01:27:20.632Z,18.40
2022-08-26T01:29:50.378Z,18.40
2022-08-26T01:32:22.262Z,18.30
2022-08-26T01:34:51.819Z,18.30
2022-08-26T01:37:23.051Z,18.40
2022-08-26T01:39:54.568Z,18.50
2022-08-26T01:42:25.779Z,18.60
2022-08-26T01:44:58.892Z,18.60
2022-08-26T01:47:29.961Z,18.60
2022-08-26T01:50:03.050Z,18.60
2022-08-26T01:52:34.266Z,18.60
2022-08-26T01:55:05.515Z,18.50
2022-08-26T01:57:37.234Z,18.50
2022-08-26T02:00:13.196Z,18.50
2022-08-26T02:02:47.459Z,18.40
2022-08-26T02:05:18.696Z,18.40
2022-08-26T02:07:48.578Z,18.30
2022-08-26T02:10:20.747Z,18.40
2022-08-26T02:12:48.869Z,18.30
2022-08-26T02:15:17.278Z,18.30
2022-08-26T02:17:47.379Z,18.20
2022-08-26T02:20:20.142Z,18.20
2022-08-26T02:22:48.963Z,18.10
2022-08-26T02:25:25.105Z,18.10
2022-08-26T02:27:54.619Z,18.00
2022-08-26T02:30:26.889Z,18.00
2022-08-26T02:32:56.594Z,18.00
2022-08-26T02:35:25.533Z,17.90
2022-08-26T02:37:54.076Z,17.90
2022-08-26T02:40:28.005Z,17.90
2022-08-26T02:42:57.091Z,17.90
2022-08-26T02:45:26.243Z,17.90
2022-08-26T02:47:54.416Z,17.80
2022-08-26T02:50:25.626Z,17.70
2022-08-26T02:52:54.049Z,17.80
2022-08-26T02:55:24.692Z,17.80
2022-08-26T02:57:53.164Z,17.80
2022-08-26T03:00:21.502Z,17.80
2022-08-26T03:02:52.344Z,17.80
2022-08-26T03:05:22.276Z,17.70
2022-08-26T03:07:52.675Z,17.60
2022-08-26T03:10:23.908Z,17.60
2022-08-26T03:12:54.172Z,17.60
2022-08-26T03:15:22.568Z,17.50
2022-08-26T03:17:50.682Z,17.60
2022-08-26T03:20:19.702Z,17.50
2022-08-26T03:22:47.907Z,17.50
2022-08-26T03:25:18.178Z,17.50
2022-08-26T03:27:48.085Z,17.40
2022-08-26T03:30:34.726Z,17.50
2022-08-26T03:33:03.294Z,17.50
2022-08-26T03:35:32.634Z,17.50
2022-08-26T03:38:01.905Z,17.40
2022-08-26T03:40:30.521Z,17.50
2022-08-26T03:43:00.097Z,17.40
2022-08-26T03:45:30.325Z,17.40
2022-08-26T03:47:58.436Z,17.40
2022-08-26T03:50:27.758Z,17.40
2022-08-26T03:52:57.890Z,17.40
2022-08-26T03:55:31.889Z,17.40
2022-08-26T03:58:02.214Z,17.40
2022-08-26T04:00:30.796Z,17.40
2022-08-26T04:02:58.979Z,17.40
2022-08-26T04:05:27.789Z,17.30
2022-08-26T04:07:56.445Z,17.30
2022-08-26T04:10:28.529Z,17.30
2022-08-26T04:13:05.932Z,17.30
2022-08-26T04:15:35.433Z,17.20
2022-08-26T04:18:03.527Z,17.20
2022-08-26T04:20:31.948Z,17.20
2022-08-26T04:23:00.031Z,17.10
2022-08-26T04:25:28.136Z,17.10
2022-08-26T04:27:56.259Z,17.20
2022-08-26T04:30:25.469Z,17.20
2022-08-26T04:32:55.087Z,17.20
2022-08-26T04:35:25.932Z,17.30
2022-08-26T04:37:55.327Z,17.30
2022-08-26T04:40:24.067Z,17.30
2022-08-26T04:42:53.984Z,17.40
2022-08-26T04:45:22.566Z,17.50
2022-08-26T04:47:56.400Z,17.60
2022-08-26T04:50:25.824Z,17.70
2022-08-26T04:52:55.352Z,17.80
2022-08-26T04:55:25.295Z,17.90
2022-08-26T04:58:08.705Z,18.00
2022-08-26T05:00:38.917Z,18.10
2022-08-26T05:03:10.244Z,18.20
2022-08-26T05:05:40.154Z,18.30
2022-08-26T05:08:08.430Z,18.30
2022-08-26T05:10:41.085Z,18.30
2022-08-26T05:13:11.111Z,18.30
2022-08-26T05:15:41.707Z,18.40
2022-08-26T05:18:11.849Z,18.60
2022-08-26T05:20:41.560Z,19.10
2022-08-26T05:23:10.198Z,19.60
2022-08-26T05:25:41.950Z,20.30
2022-08-26T05:28:10.396Z,20.70
2022-08-26T05:30:39.875Z,21.00
2022-08-26T05:33:11.027Z,20.90
2022-08-26T05:35:40.194Z,20.80
2022-08-26T05:38:12.717Z,20.60
2022-08-26T05:40:43.076Z,20.60
2022-08-26T05:43:13.302Z,20.60
2022-08-26T05:45:46.072Z,20.70
2022-08-26T05:48:18.601Z,21.00
2022-08-26T05:50:53.466Z,21.70
2022-08-26T05:53:24.013Z,22.20
2022-08-26T05:55:55.551Z,22.40
2022-08-26T05:58:25.117Z,22.10
2022-08-26T06:01:02.938Z,21.90
2022-08-26T06:03:38.363Z,21.50
2022-08-26T06:06:08.740Z,21.30
2022-08-26T06:08:39.927Z,21.20
2022-08-26T06:11:18.346Z,21.00
2022-08-26T06:13:47.615Z,20.80
2022-08-26T06:16:18.826Z,20.60
2022-08-26T06:18:50.962Z,20.60
2022-08-26T06:21:21.695Z,20.70
2022-08-26T06:24:10.368Z,20.80
2022-08-26T06:26:38.964Z,20.90
2022-08-26T06:29:11.031Z,21.00
2022-08-26T06:31:46.615Z,21.30
2022-08-26T06:34:17.451Z,21.40
2022-08-26T06:36:47.240Z,21.60
2022-08-26T06:39:17.865Z,22.00
2022-08-26T06:41:48.970Z,22.40
2022-08-26T06:44:16.990Z,23.10
2022-08-26T06:46:45.708Z,23.70
2022-08-26T06:49:13.997Z,24.00
2022-08-26T06:51:50.170Z,23.80
2022-08-26T06:54:18.306Z,23.80
2022-08-26T06:56:46.487Z,23.80
2022-08-26T06:59:16.104Z,23.90
2022-08-26T07:01:45.666Z,23.70
2022-08-26T07:04:20.273Z,23.80
2022-08-26T07:06:53.939Z,24.00
2022-08-26T07:09:23.586Z,24.20
2022-08-26T07:11:57.238Z,24.60
2022-08-26T07:14:26.509Z,24.90
2022-08-26T07:16:54.930Z,24.90
2022-08-26T07:19:30.087Z,24.90
2022-08-26T07:22:03.662Z,25.00
2022-08-26T07:24:33.334Z,24.50
2022-08-26T07:27:06.021Z,24.70
2022-08-26T07:29:35.735Z,24.60
2022-08-26T07:32:05.098Z,24.20
2022-08-26T07:34:36.102Z,24.30
2022-08-26T07:37:09.115Z,25.00
2022-08-26T07:39:37.750Z,25.60
2022-08-26T07:42:09.233Z,26.10
2022-08-26T07:44:40.690Z,26.10
2022-08-26T07:51:11.912Z,26.90
2022-08-26T07:54:10.206Z,27.30
2022-08-26T07:57:09.359Z,27.20
2022-08-26T07:59:48.190Z,26.90
2022-08-26T08:02:17.408Z,26.90
2022-08-26T08:04:50.362Z,26.90
2022-08-26T08:07:46.222Z,26.60
2022-08-26T08:10:18.849Z,26.60
2022-08-26T08:12:49.384Z,26.20
2022-08-26T08:15:21.825Z,26.20
2022-08-26T08:17:51.705Z,26.30
2022-08-26T08:20:21.239Z,26.20
2022-08-26T08:22:52.247Z,26.30
2022-08-26T08:25:24.822Z,26.30
2022-08-26T08:27:52.946Z,26.30
2022-08-26T08:30:24.145Z,26.00
2022-08-26T08:32:52.723Z,25.70
2022-08-26T08:35:22.699Z,25.70
2022-08-26T08:37:54.456Z,25.60
2022-08-26T08:40:31.367Z,25.40
2022-08-26T08:43:03.818Z,25.40
2022-08-26T08:45:38.814Z,25.60
2022-08-26T08:48:15.344Z,25.50
2022-08-26T08:50:47.024Z,25.50
2022-08-26T08:53:18.664Z,25.80
2022-08-26T08:56:02.652Z,26.20
2022-08-26T08:58:44.592Z,26.50
2022-08-26T09:01:19.424Z,26.40
2022-08-26T09:03:56.185Z,26.20
2022-08-26T09:06:27.725Z,25.90
2022-08-26T09:08:57.483Z,25.70
2022-08-26T09:11:28.630Z,25.70
2022-08-26T09:13:57.795Z,25.70
2022-08-26T09:16:37.644Z,25.80
2022-08-26T09:19:19.304Z,25.70
2022-08-26T09:21:55.654Z,25.70
2022-08-26T09:24:28.350Z,25.80
2022-08-26T09:26:59.237Z,25.80
2022-08-26T09:29:30.585Z,25.90
2022-08-26T09:32:16.118Z,25.90
2022-08-26T09:34:57.706Z,25.80
2022-08-26T09:37:43.153Z,25.80
2022-08-26T09:40:22.480Z,25.70
2022-08-26T09:43:15.878Z,25.70
2022-08-26T09:45:50.161Z,25.50
2022-08-26T09:48:31.763Z,25.60
2022-08-26T09:51:05.666Z,25.70
2022-08-26T09:53:37.628Z,25.90
2022-08-26T09:56:17.635Z,26.00
2022-08-26T09:58:51.925Z,26.20
2022-08-26T10:01:30.479Z,26.40
2022-08-26T10:04:07.641Z,26.50
2022-08-26T10:06:40.197Z,26.40
2022-08-26T10:09:14.827Z,26.50
2022-08-26T10:11:47.277Z,26.50
2022-08-26T10:14:20.599Z,26.70
2022-08-26T10:16:52.905Z,26.80
2022-08-26T10:19:25.284Z,27.10
2022-08-26T10:22:01.834Z,27.20
2022-08-26T10:24:34.923Z,27.10
2022-08-26T10:27:08.896Z,27.20
2022-08-26T10:29:42.418Z,27.20
2022-08-26T10:32:17.081Z,27.30
2022-08-26T10:34:46.121Z,27.40
2022-08-26T10:37:19.446Z,27.50
2022-08-26T10:39:58.462Z,27.60
2022-08-26T10:42:38.158Z,27.50
2022-08-26T10:45:15.053Z,27.60
2022-08-26T10:47:49.896Z,27.80
2022-08-26T10:50:19.325Z,27.80
2022-08-26T10:53:01.078Z,27.90
2022-08-26T10:55:36.383Z,27.90
2022-08-26T10:58:26.045Z,27.70
2022-08-26T11:01:23.286Z,27.70
2022-08-26T11:04:04.291Z,27.70
2022-08-26T11:06:37.569Z,27.80
2022-08-26T11:09:07.393Z,27.80
2022-08-26T11:11:51.581Z,27.90
2022-08-26T11:14:41.105Z,28.10
2022-08-26T11:18:00.722Z,28.30
2022-08-26T11:20:35.643Z,28.40
2022-08-26T11:23:50.552Z,28.70
2022-08-26T11:26:35.607Z,28.80
2022-08-26T11:29:13.271Z,28.90
2022-08-26T11:31:56.848Z,28.80
2022-08-26T11:34:56.273Z,29.00
2022-08-26T11:37:32.898Z,29.00
2022-08-26T11:40:05.516Z,29.00
2022-08-26T11:42:40.982Z,29.20
2022-08-26T11:45:20.567Z,28.90
2022-08-26T11:47:51.222Z,29.10
2022-08-26T11:50:26.038Z,29.10
2022-08-26T11:52:56.794Z,29.50
2022-08-26T11:55:25.682Z,29.80
2022-08-26T11:57:57.613Z,29.80
2022-08-26T12:00:33.691Z,29.70
2022-08-26T12:03:07.449Z,29.20
2022-08-26T12:05:53.969Z,29.00
2022-08-26T12:08:27.893Z,29.00
2022-08-26T12:11:09.809Z,29.40
2022-08-26T12:13:39.238Z,29.60
2022-08-26T12:16:07.950Z,29.60
2022-08-26T12:18:38.327Z,29.50
2022-08-26T12:21:16.095Z,29.40
2022-08-26T12:23:47.435Z,29.40
2022-08-26T12:26:25.460Z,29.50
2022-08-26T12:28:57.519Z,29.50
2022-08-26T12:31:32.017Z,29.30
2022-08-26T12:34:02.155Z,29.30
2022-08-26T12:36:37.361Z,29.10
2022-08-26T12:39:11.208Z,29.10
2022-08-26T12:41:51.076Z,28.80
2022-08-26T12:44:36.786Z,29.00
2022-08-26T12:47:09.854Z,29.30
2022-08-26T12:49:39.983Z,29.30
2022-08-26T12:52:30.065Z,29.20
2022-08-26T12:55:00.609Z,29.50
2022-08-26T12:57:35.166Z,29.60
2022-08-26T13:00:37.939Z,29.30
2022-08-26T13:03:26.072Z,29.30
2022-08-26T13:05:54.170Z,29.00
2022-08-26T13:08:28.931Z,28.80
2022-08-26T13:11:11.423Z,29.00
2022-08-26T13:13:43.578Z,29.20
2022-08-26T13:16:12.322Z,29.00
2022-08-26T13:18:40.758Z,29.00
2022-08-26T13:21:19.070Z,29.00
2022-08-26T13:23:52.289Z,28.90
2022-08-26T13:26:21.375Z,28.70
2022-08-26T13:29:01.964Z,28.80
2022-08-26T13:31:32.382Z,28.80
2022-08-26T13:34:01.994Z,28.80
2022-08-26T13:36:34.804Z,28.80
2022-08-26T13:39:07.128Z,28.70
2022-08-26T13:41:36.246Z,28.70
2022-08-26T13:44:09.371Z,28.80
2022-08-26T13:46:37.937Z,29.00
2022-08-26T13:49:09.097Z,29.20
2022-08-26T13:51:37.672Z,29.20
2022-08-26T13:54:07.938Z,28.90
2022-08-26T13:56:38.358Z,28.90
2022-08-26T13:59:06.895Z,29.10
2022-08-26T14:01:38.358Z,29.10
2022-08-26T14:04:11.284Z,29.00
2022-08-26T14:06:43.704Z,28.80
2022-08-26T14:09:16.720Z,28.70
2022-08-26T14:11:53.915Z,28.50
2022-08-26T14:14:23.334Z,28.50
2022-08-26T14:17:00.144Z,28.50
2022-08-26T14:19:32.097Z,28.60
2022-08-26T14:22:01.424Z,28.60
2022-08-26T14:24:31.322Z,28.70
2022-08-26T14:27:01.238Z,28.70
2022-08-26T14:29:31.848Z,28.50
2022-08-26T14:32:03.127Z,28.60
2022-08-26T14:34:33.954Z,28.70
2022-08-26T14:37:08.262Z,28.70
2022-08-26T14:39:39.374Z,28.60
2022-08-26T14:42:09.062Z,28.50
2022-08-26T14:44:37.980Z,28.30
2022-08-26T14:47:07.168Z,28.10
2022-08-26T14:49:35.379Z,27.90
2022-08-26T14:52:03.932Z,27.60
2022-08-26T14:54:32.054Z,27.50
2022-08-26T14:57:03.819Z,27.40
2022-08-26T14:59:34.481Z,27.10
2022-08-26T15:02:03.436Z,26.70
2022-08-26T15:04:33.638Z,26.50
2022-08-26T15:07:03.234Z,26.10
2022-08-26T15:09:34.149Z,25.80
2022-08-26T15:12:04.249Z,25.20
2022-08-26T15:14:34.727Z,24.70
2022-08-26T15:17:03.084Z,24.60
2022-08-26T15:19:31.137Z,24.50
2022-08-26T15:21:59.233Z,24.30
2022-08-26T15:24:28.811Z,24.10
2022-08-26T15:26:57.612Z,24.00
2022-08-26T15:29:27.174Z,23.90
2022-08-26T15:31:57.296Z,24.00
2022-08-26T15:34:27.207Z,24.00
2022-08-26T15:36:55.908Z,24.00
2022-08-26T15:39:25.748Z,24.10
2022-08-26T15:41:56.447Z,24.00
2022-08-26T15:44:26.597Z,24.20
2022-08-26T15:46:58.595Z,24.30
2022-08-26T15:49:27.608Z,24.40
2022-08-26T15:51:55.700Z,24.40
2022-08-26T15:54:24.784Z,24.40
2022-08-26T15:56:53.055Z,24.50
2022-08-26T15:59:22.667Z,24.50
2022-08-26T16:01:53.390Z,24.60
2022-08-26T16:04:22.170Z,24.60
2022-08-26T16:06:52.242Z,24.60
2022-08-26T16:09:21.115Z,24.60
2022-08-26T16:11:49.167Z,24.60
2022-08-26T16:14:17.678Z,24.60
2022-08-26T16:16:47.988Z,24.50
2022-08-26T16:19:18.535Z,24.20
2022-08-26T16:21:47.264Z,24.00
2022-08-26T16:24:15.434Z,23.90
2022-08-26T16:26:45.288Z,23.80
2022-08-26T16:29:15.403Z,23.60
2022-08-26T16:31:43.821Z,23.60
2022-08-26T16:34:12.556Z,23.50
2022-08-26T16:36:41.975Z,23.50
2022-08-26T16:39:10.741Z,23.30
2022-08-26T16:41:38.817Z,23.00
2022-08-26T16:44:07.955Z,22.70
2022-08-26T16:46:36.518Z,22.50
2022-08-26T16:49:04.756Z,22.30
2022-08-26T16:51:38.252Z,22.20
2022-08-26T16:54:08.952Z,22.20
2022-08-26T16:56:38.516Z,22.10
2022-08-26T16:59:09.522Z,22.00
2022-08-26T17:01:37.734Z,21.90
2022-08-26T17:04:05.974Z,21.80
2022-08-26T17:06:34.348Z,21.80
2022-08-26T17:09:02.494Z,21.40
2022-08-26T17:11:32.215Z,21.10
2022-08-26T17:14:00.577Z,20.80
2022-08-26T17:16:28.722Z,20.60
2022-08-26T17:18:57.367Z,20.40
2022-08-26T17:21:25.998Z,20.20
2022-08-26T17:24:00.375Z,20.10
2022-08-26T17:26:29.173Z,19.90
2022-08-26T17:29:00.206Z,19.80
2022-08-26T17:31:28.337Z,19.70
2022-08-26T17:33:59.406Z,19.70
2022-08-26T17:36:29.765Z,19.90
2022-08-26T17:39:01.329Z,20.10
2022-08-26T17:41:30.006Z,20.20
2022-08-26T17:44:02.231Z,20.20
2022-08-26T17:46:33.239Z,19.70
2022-08-26T17:49:02.855Z,19.20
2022-08-26T17:51:40.455Z,19.00
2022-08-26T17:54:09.206Z,18.80
2022-08-26T17:56:37.356Z,18.60
2022-08-26T17:59:07.289Z,18.60
2022-08-26T18:01:35.614Z,18.60
2022-08-26T18:04:05.159Z,18.40
2022-08-26T18:06:34.255Z,18.30
2022-08-26T18:09:04.747Z,18.20
2022-08-26T18:11:33.490Z,18.20
2022-08-26T18:14:01.732Z,18.20
2022-08-26T18:16:38.148Z,18.20
2022-08-26T18:19:06.855Z,18.30
2022-08-26T18:21:36.198Z,18.40
2022-08-26T18:24:05.161Z,18.40
2022-08-26T18:26:39.086Z,18.50
2022-08-26T18:29:08.528Z,18.40
2022-08-26T18:31:38.619Z,18.40
2022-08-26T18:34:06.850Z,18.30
2022-08-26T18:36:37.818Z,18.30
2022-08-26T18:39:08.076Z,18.30
2022-08-26T18:41:42.681Z,18.30
2022-08-26T18:44:13.598Z,18.30
2022-08-26T18:46:45.116Z,18.40
2022-08-26T18:49:14.261Z,18.40
2022-08-26T18:51:43.251Z,18.30
2022-08-26T18:54:15.429Z,18.20
2022-08-26T18:56:43.788Z,18.00
2022-08-26T18:59:13.605Z,18.00
2022-08-26T19:01:45.331Z,18.00
2022-08-26T19:04:16.613Z,18.00
2022-08-26T19:06:50.682Z,18.00
2022-08-26T19:09:22.276Z,18.00
2022-08-26T19:11:53.835Z,18.00
2022-08-26T19:14:21.900Z,18.10
2022-08-26T19:16:52.551Z,18.00
2022-08-26T19:19:23.797Z,18.00
2022-08-26T19:21:54.972Z,18.00
2022-08-26T19:24:26.005Z,18.00
2022-08-26T19:27:01.681Z,18.00
2022-08-26T19:29:32.027Z,17.90
2022-08-26T19:32:02.891Z,18.00
2022-08-26T19:34:37.417Z,18.00
2022-08-26T19:37:07.309Z,17.90
2022-08-26T19:39:36.191Z,17.90
2022-08-26T19:42:04.342Z,17.90
2022-08-26T19:44:49.785Z,17.90
2022-08-26T19:47:25.245Z,17.90
2022-08-26T19:49:56.601Z,17.90
2022-08-26T19:52:36.624Z,17.80
2022-08-26T19:55:06.837Z,17.80
2022-08-26T19:57:39.307Z,17.80
2022-08-26T20:00:10.474Z,17.80
2022-08-26T20:02:44.239Z,17.80
2022-08-26T20:05:14.856Z,17.70
2022-08-26T20:07:45.707Z,17.70
2022-08-26T20:10:20.700Z,17.70
2022-08-26T20:12:51.898Z,17.60
2022-08-26T20:15:21.733Z,17.60
2022-08-26T20:17:51.458Z,17.50
2022-08-26T20:20:40.065Z,17.50
2022-08-26T20:23:08.394Z,17.50
2022-08-26T20:25:36.771Z,17.50
2022-08-26T20:28:05.423Z,17.50
2022-08-26T20:30:33.585Z,17.50
2022-08-26T20:33:03.072Z,17.50
2022-08-26T20:35:31.239Z,17.40
2022-08-26T20:38:00.007Z,17.50
2022-08-26T20:40:29.069Z,17.40
2022-08-26T20:42:57.399Z,17.40
2022-08-26T20:45:32.245Z,17.40
2022-08-26T20:48:00.441Z,17.40
2022-08-26T20:50:33.402Z,17.40
2022-08-26T20:53:02.353Z,17.30
2022-08-26T20:55:32.154Z,17.30
2022-08-26T20:58:00.628Z,17.30
2022-08-26T21:00:28.987Z,17.30
2022-08-26T21:03:06.631Z,17.30
2022-08-26T21:05:37.340Z,17.30
2022-08-26T21:08:05.523Z,17.40
2022-08-26T21:10:42.440Z,17.40
2022-08-26T21:13:12.830Z,17.30
2022-08-26T21:15:40.905Z,17.30
2022-08-26T21:18:09.219Z,17.20
2022-08-26T21:20:39.100Z,17.20
2022-08-26T21:23:08.510Z,17.20
2022-08-26T21:25:36.687Z,17.20
2022-08-26T21:28:05.296Z,17.20
2022-08-26T21:30:34.262Z,17.20
2022-08-26T21:33:02.257Z,17.20
2022-08-26T21:35:30.292Z,17.20
2022-08-26T21:38:00.017Z,17.20
2022-08-26T21:40:28.663Z,17.10
2022-08-26T21:42:56.904Z,17.20
2022-08-26T21:45:24.962Z,17.10
2022-08-26T21:47:53.157Z,17.00
2022-08-26T21:50:21.586Z,17.00
2022-08-26T21:52:53.463Z,17.10
2022-08-26T21:55:23.304Z,17.10
2022-08-26T21:57:51.582Z,17.10
2022-08-26T22:00:22.630Z,17.10
2022-08-26T22:02:52.412Z,17.20
2022-08-26T22:05:20.729Z,17.20
2022-08-26T22:07:51.930Z,17.30
2022-08-26T22:10:27.181Z,17.20
2022-08-26T22:12:58.599Z,17.20
2022-08-26T22:15:30.314Z,17.20
2022-08-26T22:17:58.928Z,17.30
2022-08-26T22:20:27.722Z,17.10
2022-08-26T22:22:57.515Z,17.10
2022-08-26T22:25:27.265Z,17.10
2022-08-26T22:27:57.306Z,17.10
2022-08-26T22:30:28.271Z,17.10
2022-08-26T22:32:56.423Z,17.10
2022-08-26T22:35:28.729Z,17.20
2022-08-26T22:38:01.016Z,17.20
2022-08-26T22:40:30.654Z,17.30
2022-08-26T22:43:00.460Z,17.20
2022-08-26T22:45:31.275Z,17.20
2022-08-26T22:48:05.444Z,17.10
2022-08-26T22:50:33.761Z,17.10
2022-08-26T22:53:01.897Z,17.20
2022-08-26T22:55:31.637Z,17.20
2022-08-26T22:58:00.140Z,17.30
2022-08-26T23:00:32.027Z,17.30
2022-08-26T23:03:01.512Z,17.40
2022-08-26T23:05:29.695Z,17.50
2022-08-26T23:07:57.979Z,17.60
2022-08-26T23:10:26.582Z,17.70
2022-08-26T23:12:56.259Z,17.70
2022-08-26T23:15:24.588Z,17.80
2022-08-26T23:17:58.575Z,17.80
2022-08-26T23:20:28.553Z,17.80
2022-08-26T23:22:57.307Z,17.80
2022-08-26T23:25:25.783Z,17.80
2022-08-26T23:27:55.476Z,17.80
2022-08-26T23:30:26.607Z,17.80
2022-08-26T23:32:54.984Z,17.80
2022-08-26T23:35:22.413Z,17.70
2022-08-26T23:37:53.041Z,17.70
2022-08-26T23:40:25.407Z,17.70
2022-08-26T23:42:55.634Z,17.70
2022-08-26T23:45:25.256Z,17.70
2022-08-26T23:47:54.230Z,17.80
2022-08-26T23:50:46.046Z,17.80
2022-08-26T23:53:19.368Z,17.90
2022-08-26T23:55:49.341Z,17.90
2022-08-26T23:58:20.381Z,17.80
